sensor_id;sensor_type;location;lat;lon;timestamp;P1;durP1;ratioP1;P2;durP2;ratioP2
50531;SDS011;36483;37.396;-122.212;2023-01-10T00:02:10;24.25;;;4.25;;
50531;SDS011;36483;37.396;-122.212;2023-01-10T00:04:36;21.85;;;4.57;;
50531;SDS011;36483;37.396;-122.212;2023-01-10T00:07:03;25.35;;;5.50;;
50531;SDS011;36483;37.396;-122.212;2023-01-10T00:09:29;28.05;;;5.10;;
50531;SDS011;36483;37.396;-122.212;2023-01-10T00:11:55;20.90;;;4.50;;
50531;SDS011;36483;37.396;-122.212;2023-01-10T00:14:39;21.67;;;4.22;;
50531;SDS011;36483;37.396;-122.212;2023-01-10T00:17:05;22.88;;;4.30;;
50531;SDS011;36483;37.396;-122.212;2023-01-10T00:19:32;22.02;;;4.70;;
50531;SDS011;36483;37.396;-122.212;2023-01-10T00:21:58;20.55;;;4.22;;
50531;SDS011;36483;37.396;-122.212;2023-01-10T00:24:36;19.70;;;4.32;;
50531;SDS011;36483;37.396;-122.212;2023-01-10T00:27:03;26.65;;;4.63;;
50531;SDS011;36483;37.396;-122.212;2023-01-10T00:29:29;24.73;;;4.57;;
50531;SDS011;36483;37.396;-122.212;2023-01-10T00:31:56;29.45;;;5.47;;
50531;SDS011;36483;37.396;-122.212;2023-01-10T00:34:22;28.33;;;4.13;;
50531;SDS011;36483;37.396;-122.212;2023-01-10T00:36:48;21.92;;;4.20;;
50531;SDS011;36483;37.396;-122.212;2023-01-10T00:39:15;24.63;;;4.93;;
50531;SDS011;36483;37.396;-122.212;2023-01-10T00:41:44;21.42;;;4.65;;
50531;SDS011;36483;37.396;-122.212;2023-01-10T00:44:28;21.77;;;4.95;;
50531;SDS011;36483;37.396;-122.212;2023-01-10T00:46:55;24.00;;;4.40;;
50531;SDS011;36483;37.396;-122.212;2023-01-10T00:49:21;25.92;;;5.30;;
50531;SDS011;36483;37.396;-122.212;2023-01-10T00:51:47;21.33;;;4.38;;
50531;SDS011;36483;37.396;-122.212;2023-01-10T00:54:14;19.85;;;4.30;;
50531;SDS011;36483;37.396;-122.212;2023-01-10T00:56:40;22.40;;;4.25;;
50531;SDS011;36483;37.396;-122.212;2023-01-10T00:59:06;18.65;;;4.15;;
50531;SDS011;36483;37.396;-122.212;2023-01-10T01:01:32;22.88;;;5.18;;
50531;SDS011;36483;37.396;-122.212;2023-01-10T01:03:59;28.30;;;4.80;;
50531;SDS011;36483;37.396;-122.212;2023-01-10T01:06:25;21.30;;;4.57;;
50531;SDS011;36483;37.396;-122.212;2023-01-10T01:08:51;21.67;;;4.30;;
50531;SDS011;36483;37.396;-122.212;2023-01-10T01:11:18;20.15;;;4.95;;
50531;SDS011;36483;37.396;-122.212;2023-01-10T01:13:44;22.20;;;4.55;;
50531;SDS011;36483;37.396;-122.212;2023-01-10T01:16:10;23.95;;;4.07;;
50531;SDS011;36483;37.396;-122.212;2023-01-10T01:18:36;17.63;;;4.07;;
50531;SDS011;36483;37.396;-122.212;2023-01-10T01:21:03;25.67;;;4.90;;
50531;SDS011;36483;37.396;-122.212;2023-01-10T01:23:30;24.25;;;4.88;;
50531;SDS011;36483;37.396;-122.212;2023-01-10T01:25:58;28.08;;;5.00;;
50531;SDS011;36483;37.396;-122.212;2023-01-10T01:28:25;21.52;;;4.70;;
50531;SDS011;36483;37.396;-122.212;2023-01-10T01:30:51;21.70;;;4.43;;
50531;SDS011;36483;37.396;-122.212;2023-01-10T01:33:17;25.80;;;4.45;;
50531;SDS011;36483;37.396;-122.212;2023-01-10T01:35:44;18.45;;;4.40;;
50531;SDS011;36483;37.396;-122.212;2023-01-10T01:38:12;17.15;;;4.43;;
50531;SDS011;36483;37.396;-122.212;2023-01-10T01:40:38;19.13;;;4.20;;
50531;SDS011;36483;37.396;-122.212;2023-01-10T01:44:09;20.45;;;3.83;;
50531;SDS011;36483;37.396;-122.212;2023-01-10T01:46:21;17.90;;;4.15;;
50531;SDS011;36483;37.396;-122.212;2023-01-10T01:48:47;20.13;;;4.15;;
50531;SDS011;36483;37.396;-122.212;2023-01-10T01:51:17;17.45;;;4.07;;
50531;SDS011;36483;37.396;-122.212;2023-01-10T01:56:18;22.60;;;4.20;;
50531;SDS011;36483;37.396;-122.212;2023-01-10T02:01:18;22.30;;;4.40;;
50531;SDS011;36483;37.396;-122.212;2023-01-10T02:03:47;16.27;;;4.22;;
50531;SDS011;36483;37.396;-122.212;2023-01-10T02:06:16;19.20;;;4.22;;
50531;SDS011;36483;37.396;-122.212;2023-01-10T02:08:44;20.55;;;3.97;;
50531;SDS011;36483;37.396;-122.212;2023-01-10T02:11:14;21.17;;;4.20;;
50531;SDS011;36483;37.396;-122.212;2023-01-10T02:13:41;19.50;;;4.63;;
50531;SDS011;36483;37.396;-122.212;2023-01-10T02:16:08;15.15;;;3.78;;
50531;SDS011;36483;37.396;-122.212;2023-01-10T02:18:34;19.30;;;3.63;;
50531;SDS011;36483;37.396;-122.212;2023-01-10T02:40:29;20.25;;;4.00;;
50531;SDS011;36483;37.396;-122.212;2023-01-10T02:45:34;16.77;;;3.80;;
50531;SDS011;36483;37.396;-122.212;2023-01-10T02:48:03;16.10;;;3.92;;
50531;SDS011;36483;37.396;-122.212;2023-01-10T02:53:30;19.80;;;4.00;;
50531;SDS011;36483;37.396;-122.212;2023-01-10T02:59:13;22.05;;;4.45;;
50531;SDS011;36483;37.396;-122.212;2023-01-10T03:02:09;17.83;;;3.60;;
50531;SDS011;36483;37.396;-122.212;2023-01-10T03:08:00;15.93;;;3.63;;
50531;SDS011;36483;37.396;-122.212;2023-01-10T03:10:36;15.83;;;3.53;;
50531;SDS011;36483;37.396;-122.212;2023-01-10T03:13:05;15.80;;;3.80;;
50531;SDS011;36483;37.396;-122.212;2023-01-10T03:15:36;15.50;;;3.97;;
50531;SDS011;36483;37.396;-122.212;2023-01-10T03:18:05;20.98;;;4.18;;
50531;SDS011;36483;37.396;-122.212;2023-01-10T03:20:37;18.98;;;4.55;;
50531;SDS011;36483;37.396;-122.212;2023-01-10T03:23:04;17.85;;;4.38;;
50531;SDS011;36483;37.396;-122.212;2023-01-10T03:25:32;18.65;;;4.10;;
50531;SDS011;36483;37.396;-122.212;2023-01-10T03:28:04;16.52;;;4.22;;
50531;SDS011;36483;37.396;-122.212;2023-01-10T03:30:58;17.38;;;4.03;;
50531;SDS011;36483;37.396;-122.212;2023-01-10T03:33:27;18.88;;;4.00;;
50531;SDS011;36483;37.396;-122.212;2023-01-10T03:41:15;17.50;;;3.78;;
50531;SDS011;36483;37.396;-122.212;2023-01-10T03:49:29;20.42;;;3.95;;
50531;SDS011;36483;37.396;-122.212;2023-01-10T03:51:58;19.15;;;4.00;;
50531;SDS011;36483;37.396;-122.212;2023-01-10T03:54:25;15.73;;;3.75;;
50531;SDS011;36483;37.396;-122.212;2023-01-10T03:56:51;19.45;;;3.95;;
50531;SDS011;36483;37.396;-122.212;2023-01-10T03:59:25;17.73;;;4.30;;
50531;SDS011;36483;37.396;-122.212;2023-01-10T04:01:52;14.43;;;3.47;;
50531;SDS011;36483;37.396;-122.212;2023-01-10T04:04:19;14.00;;;3.97;;
50531;SDS011;36483;37.396;-122.212;2023-01-10T04:06:46;18.70;;;3.70;;
50531;SDS011;36483;37.396;-122.212;2023-01-10T04:09:12;14.02;;;3.75;;
50531;SDS011;36483;37.396;-122.212;2023-01-10T04:11:38;17.45;;;3.63;;
50531;SDS011;36483;37.396;-122.212;2023-01-10T04:14:04;18.48;;;3.85;;
50531;SDS011;36483;37.396;-122.212;2023-01-10T04:16:30;17.30;;;3.95;;
50531;SDS011;36483;37.396;-122.212;2023-01-10T04:18:57;18.80;;;4.03;;
50531;SDS011;36483;37.396;-122.212;2023-01-10T04:21:23;15.18;;;3.85;;
50531;SDS011;36483;37.396;-122.212;2023-01-10T04:23:49;13.10;;;3.47;;
50531;SDS011;36483;37.396;-122.212;2023-01-10T04:26:15;19.25;;;4.35;;
50531;SDS011;36483;37.396;-122.212;2023-01-10T04:28:41;16.85;;;4.00;;
50531;SDS011;36483;37.396;-122.212;2023-01-10T04:31:07;16.10;;;4.45;;
50531;SDS011;36483;37.396;-122.212;2023-01-10T04:33:33;13.93;;;3.45;;
50531;SDS011;36483;37.396;-122.212;2023-01-10T04:36:00;14.45;;;3.78;;
50531;SDS011;36483;37.396;-122.212;2023-01-10T04:38:26;20.48;;;4.05;;
50531;SDS011;36483;37.396;-122.212;2023-01-10T04:40:52;14.38;;;3.75;;
50531;SDS011;36483;37.396;-122.212;2023-01-10T04:43:19;15.05;;;3.45;;
50531;SDS011;36483;37.396;-122.212;2023-01-10T04:45:45;17.48;;;3.72;;
50531;SDS011;36483;37.396;-122.212;2023-01-10T04:48:12;16.92;;;4.22;;
50531;SDS011;36483;37.396;-122.212;2023-01-10T04:50:38;14.82;;;4.00;;
50531;SDS011;36483;37.396;-122.212;2023-01-10T04:53:04;13.82;;;3.95;;
50531;SDS011;36483;37.396;-122.212;2023-01-10T04:55:30;17.95;;;3.47;;
50531;SDS011;36483;37.396;-122.212;2023-01-10T04:57:57;11.55;;;3.55;;
50531;SDS011;36483;37.396;-122.212;2023-01-10T05:00:25;16.92;;;3.60;;
50531;SDS011;36483;37.396;-122.212;2023-01-10T05:02:55;16.35;;;3.88;;
50531;SDS011;36483;37.396;-122.212;2023-01-10T05:05:22;15.02;;;4.10;;
50531;SDS011;36483;37.396;-122.212;2023-01-10T05:07:49;15.60;;;3.85;;
50531;SDS011;36483;37.396;-122.212;2023-01-10T05:10:15;13.52;;;3.30;;
50531;SDS011;36483;37.396;-122.212;2023-01-10T05:12:41;10.70;;;2.70;;
50531;SDS011;36483;37.396;-122.212;2023-01-10T05:15:08;13.90;;;3.55;;
50531;SDS011;36483;37.396;-122.212;2023-01-10T05:17:34;11.70;;;3.22;;
50531;SDS011;36483;37.396;-122.212;2023-01-10T05:20:00;14.45;;;3.17;;
50531;SDS011;36483;37.396;-122.212;2023-01-10T05:22:26;13.82;;;2.90;;
50531;SDS011;36483;37.396;-122.212;2023-01-10T05:24:52;11.73;;;3.25;;
50531;SDS011;36483;37.396;-122.212;2023-01-10T05:27:19;13.02;;;3.10;;
50531;SDS011;36483;37.396;-122.212;2023-01-10T05:29:45;13.68;;;3.35;;
50531;SDS011;36483;37.396;-122.212;2023-01-10T05:32:31;13.55;;;3.20;;
50531;SDS011;36483;37.396;-122.212;2023-01-10T05:34:57;9.80;;;3.22;;
50531;SDS011;36483;37.396;-122.212;2023-01-10T05:37:23;12.38;;;3.65;;
50531;SDS011;36483;37.396;-122.212;2023-01-10T05:39:49;15.20;;;3.40;;
50531;SDS011;36483;37.396;-122.212;2023-01-10T05:42:15;12.65;;;3.25;;
50531;SDS011;36483;37.396;-122.212;2023-01-10T05:44:42;9.00;;;2.92;;
50531;SDS011;36483;37.396;-122.212;2023-01-10T05:47:08;12.13;;;3.60;;
50531;SDS011;36483;37.396;-122.212;2023-01-10T05:49:34;13.98;;;3.45;;
50531;SDS011;36483;37.396;-122.212;2023-01-10T05:52:00;14.52;;;3.47;;
50531;SDS011;36483;37.396;-122.212;2023-01-10T05:54:26;12.55;;;3.20;;
50531;SDS011;36483;37.396;-122.212;2023-01-10T05:56:54;12.57;;;3.33;;
50531;SDS011;36483;37.396;-122.212;2023-01-10T05:59:20;10.25;;;3.30;;
50531;SDS011;36483;37.396;-122.212;2023-01-10T06:01:46;9.80;;;2.97;;
50531;SDS011;36483;37.396;-122.212;2023-01-10T06:04:12;14.85;;;3.63;;
50531;SDS011;36483;37.396;-122.212;2023-01-10T06:06:39;10.23;;;3.22;;
50531;SDS011;36483;37.396;-122.212;2023-01-10T06:09:05;12.60;;;3.90;;
50531;SDS011;36483;37.396;-122.212;2023-01-10T06:11:31;14.30;;;3.38;;
50531;SDS011;36483;37.396;-122.212;2023-01-10T06:14:01;16.60;;;3.72;;
50531;SDS011;36483;37.396;-122.212;2023-01-10T06:16:27;14.27;;;3.72;;
50531;SDS011;36483;37.396;-122.212;2023-01-10T06:18:53;16.30;;;3.75;;
50531;SDS011;36483;37.396;-122.212;2023-01-10T06:21:19;15.77;;;3.97;;
50531;SDS011;36483;37.396;-122.212;2023-01-10T06:23:45;18.80;;;3.58;;
50531;SDS011;36483;37.396;-122.212;2023-01-10T06:26:12;13.18;;;3.15;;
50531;SDS011;36483;37.396;-122.212;2023-01-10T06:28:38;11.02;;;3.28;;
50531;SDS011;36483;37.396;-122.212;2023-01-10T06:31:06;12.00;;;2.83;;
50531;SDS011;36483;37.396;-122.212;2023-01-10T06:33:32;12.57;;;3.50;;
50531;SDS011;36483;37.396;-122.212;2023-01-10T06:35:59;10.68;;;2.83;;
50531;SDS011;36483;37.396;-122.212;2023-01-10T06:38:26;13.43;;;2.92;;
50531;SDS011;36483;37.396;-122.212;2023-01-10T06:40:52;9.85;;;2.72;;
50531;SDS011;36483;37.396;-122.212;2023-01-10T06:43:18;13.55;;;3.28;;
50531;SDS011;36483;37.396;-122.212;2023-01-10T06:45:44;18.90;;;3.80;;
50531;SDS011;36483;37.396;-122.212;2023-01-10T06:48:11;12.82;;;3.00;;
50531;SDS011;36483;37.396;-122.212;2023-01-10T06:50:37;15.07;;;3.45;;
50531;SDS011;36483;37.396;-122.212;2023-01-10T06:53:03;12.05;;;2.95;;
50531;SDS011;36483;37.396;-122.212;2023-01-10T06:55:30;15.57;;;3.72;;
50531;SDS011;36483;37.396;-122.212;2023-01-10T06:58:00;12.13;;;3.05;;
50531;SDS011;36483;37.396;-122.212;2023-01-10T07:00:28;13.60;;;3.30;;
50531;SDS011;36483;37.396;-122.212;2023-01-10T07:02:58;11.80;;;3.78;;
50531;SDS011;36483;37.396;-122.212;2023-01-10T07:05:25;17.58;;;3.33;;
50531;SDS011;36483;37.396;-122.212;2023-01-10T07:07:51;16.45;;;3.58;;
50531;SDS011;36483;37.396;-122.212;2023-01-10T07:10:17;13.10;;;3.60;;
50531;SDS011;36483;37.396;-122.212;2023-01-10T07:12:43;13.25;;;3.60;;
50531;SDS011;36483;37.396;-122.212;2023-01-10T07:15:10;16.33;;;3.17;;
50531;SDS011;36483;37.396;-122.212;2023-01-10T07:17:36;16.67;;;3.30;;
50531;SDS011;36483;37.396;-122.212;2023-01-10T07:20:03;10.93;;;2.47;;
50531;SDS011;36483;37.396;-122.212;2023-01-10T07:22:29;9.52;;;2.28;;
50531;SDS011;36483;37.396;-122.212;2023-01-10T07:24:55;9.73;;;2.50;;
50531;SDS011;36483;37.396;-122.212;2023-01-10T07:27:21;13.60;;;2.50;;
50531;SDS011;36483;37.396;-122.212;2023-01-10T07:29:47;13.10;;;2.30;;
50531;SDS011;36483;37.396;-122.212;2023-01-10T07:32:14;12.75;;;2.40;;
50531;SDS011;36483;37.396;-122.212;2023-01-10T07:34:40;12.50;;;2.83;;
50531;SDS011;36483;37.396;-122.212;2023-01-10T07:37:06;9.95;;;2.30;;
50531;SDS011;36483;37.396;-122.212;2023-01-10T07:39:32;7.32;;;1.95;;
50531;SDS011;36483;37.396;-122.212;2023-01-10T07:41:58;10.75;;;2.22;;
50531;SDS011;36483;37.396;-122.212;2023-01-10T07:44:25;12.73;;;2.40;;
50531;SDS011;36483;37.396;-122.212;2023-01-10T07:46:51;13.65;;;2.33;;
50531;SDS011;36483;37.396;-122.212;2023-01-10T07:49:17;13.52;;;2.45;;
50531;SDS011;36483;37.396;-122.212;2023-01-10T07:51:44;12.40;;;2.28;;
50531;SDS011;36483;37.396;-122.212;2023-01-10T07:54:10;9.45;;;2.17;;
50531;SDS011;36483;37.396;-122.212;2023-01-10T07:56:37;7.93;;;2.28;;
50531;SDS011;36483;37.396;-122.212;2023-01-10T07:59:03;11.60;;;2.38;;
50531;SDS011;36483;37.396;-122.212;2023-01-10T08:01:29;12.65;;;2.22;;
50531;SDS011;36483;37.396;-122.212;2023-01-10T08:03:56;10.30;;;2.25;;
50531;SDS011;36483;37.396;-122.212;2023-01-10T08:06:23;6.18;;;1.75;;
50531;SDS011;36483;37.396;-122.212;2023-01-10T08:08:49;8.82;;;2.20;;
50531;SDS011;36483;37.396;-122.212;2023-01-10T08:11:15;7.88;;;1.63;;
50531;SDS011;36483;37.396;-122.212;2023-01-10T08:13:41;7.47;;;2.00;;
50531;SDS011;36483;37.396;-122.212;2023-01-10T08:16:07;8.38;;;1.83;;
50531;SDS011;36483;37.396;-122.212;2023-01-10T08:18:34;11.57;;;2.35;;
50531;SDS011;36483;37.396;-122.212;2023-01-10T08:21:00;7.88;;;1.92;;
50531;SDS011;36483;37.396;-122.212;2023-01-10T08:23:26;8.18;;;1.75;;
50531;SDS011;36483;37.396;-122.212;2023-01-10T08:25:52;5.95;;;1.63;;
50531;SDS011;36483;37.396;-122.212;2023-01-10T08:28:19;8.02;;;1.55;;
50531;SDS011;36483;37.396;-122.212;2023-01-10T08:30:45;6.53;;;1.38;;
50531;SDS011;36483;37.396;-122.212;2023-01-10T08:33:11;9.63;;;1.73;;
50531;SDS011;36483;37.396;-122.212;2023-01-10T08:35:38;7.85;;;1.40;;
50531;SDS011;36483;37.396;-122.212;2023-01-10T08:38:06;6.38;;;1.30;;
50531;SDS011;36483;37.396;-122.212;2023-01-10T08:40:33;6.10;;;1.40;;
50531;SDS011;36483;37.396;-122.212;2023-01-10T08:43:04;5.82;;;1.50;;
50531;SDS011;36483;37.396;-122.212;2023-01-10T08:45:31;5.57;;;1.40;;
50531;SDS011;36483;37.396;-122.212;2023-01-10T08:47:58;7.05;;;1.55;;
50531;SDS011;36483;37.396;-122.212;2023-01-10T08:50:24;8.55;;;1.30;;
50531;SDS011;36483;37.396;-122.212;2023-01-10T08:52:50;6.65;;;1.23;;
50531;SDS011;36483;37.396;-122.212;2023-01-10T08:55:17;2.97;;;1.13;;
50531;SDS011;36483;37.396;-122.212;2023-01-10T08:57:44;11.32;;;1.63;;
50531;SDS011;36483;37.396;-122.212;2023-01-10T09:00:10;4.05;;;1.10;;
50531;SDS011;36483;37.396;-122.212;2023-01-10T09:02:40;3.78;;;0.85;;
50531;SDS011;36483;37.396;-122.212;2023-01-10T09:05:06;2.85;;;0.90;;
50531;SDS011;36483;37.396;-122.212;2023-01-10T09:07:33;2.92;;;0.88;;
50531;SDS011;36483;37.396;-122.212;2023-01-10T09:09:59;7.47;;;1.17;;
50531;SDS011;36483;37.396;-122.212;2023-01-10T09:12:26;6.65;;;1.10;;
50531;SDS011;36483;37.396;-122.212;2023-01-10T09:15:11;6.10;;;0.88;;
50531;SDS011;36483;37.396;-122.212;2023-01-10T09:17:37;5.95;;;0.98;;
50531;SDS011;36483;37.396;-122.212;2023-01-10T09:20:03;4.53;;;1.00;;
50531;SDS011;36483;37.396;-122.212;2023-01-10T09:22:35;8.48;;;1.52;;
50531;SDS011;36483;37.396;-122.212;2023-01-10T09:25:01;7.35;;;1.20;;
50531;SDS011;36483;37.396;-122.212;2023-01-10T09:27:28;6.55;;;1.20;;
50531;SDS011;36483;37.396;-122.212;2023-01-10T09:29:54;6.28;;;1.23;;
50531;SDS011;36483;37.396;-122.212;2023-01-10T09:32:21;7.40;;;1.20;;
50531;SDS011;36483;37.396;-122.212;2023-01-10T09:34:47;5.65;;;1.02;;
50531;SDS011;36483;37.396;-122.212;2023-01-10T09:37:13;6.00;;;1.17;;
50531;SDS011;36483;37.396;-122.212;2023-01-10T09:39:39;5.57;;;1.38;;
50531;SDS011;36483;37.396;-122.212;2023-01-10T09:48:33;8.57;;;1.70;;
50531;SDS011;36483;37.396;-122.212;2023-01-10T09:53:56;4.60;;;0.80;;
50531;SDS011;36483;37.396;-122.212;2023-01-10T09:56:24;2.88;;;0.93;;
50531;SDS011;36483;37.396;-122.212;2023-01-10T09:58:51;2.78;;;0.80;;
50531;SDS011;36483;37.396;-122.212;2023-01-10T10:01:18;4.68;;;1.10;;
50531;SDS011;36483;37.396;-122.212;2023-01-10T10:06:40;6.25;;;1.52;;
50531;SDS011;36483;37.396;-122.212;2023-01-10T10:09:08;2.75;;;0.70;;
50531;SDS011;36483;37.396;-122.212;2023-01-10T10:11:44;2.28;;;0.80;;
50531;SDS011;36483;37.396;-122.212;2023-01-10T10:17:17;1.52;;;0.40;;
50531;SDS011;36483;37.396;-122.212;2023-01-10T13:30:37;17.95;;;3.22;;
50531;SDS011;36483;37.396;-122.212;2023-01-10T13:35:49;20.30;;;3.85;;
50531;SDS011;36483;37.396;-122.212;2023-01-10T13:38:19;22.48;;;4.03;;
50531;SDS011;36483;37.396;-122.212;2023-01-10T13:40:56;25.17;;;3.60;;
50531;SDS011;36483;37.396;-122.212;2023-01-10T13:49:26;19.95;;;4.25;;
50531;SDS011;36483;37.396;-122.212;2023-01-10T13:51:35;23.52;;;4.63;;
50531;SDS011;36483;37.396;-122.212;2023-01-10T13:54:03;18.17;;;4.47;;
50531;SDS011;36483;37.396;-122.212;2023-01-10T13:56:49;21.00;;;4.05;;
50531;SDS011;36483;37.396;-122.212;2023-01-10T14:02:26;18.67;;;3.80;;
50531;SDS011;36483;37.396;-122.212;2023-01-10T14:04:58;22.42;;;4.68;;
50531;SDS011;36483;37.396;-122.212;2023-01-10T14:07:27;23.25;;;4.60;;
50531;SDS011;36483;37.396;-122.212;2023-01-10T14:10:05;16.45;;;4.20;;
50531;SDS011;36483;37.396;-122.212;2023-01-10T14:12:49;20.38;;;3.90;;
50531;SDS011;36483;37.396;-122.212;2023-01-10T14:15:28;20.25;;;3.80;;
50531;SDS011;36483;37.396;-122.212;2023-01-10T14:18:04;21.30;;;4.63;;
50531;SDS011;36483;37.396;-122.212;2023-01-10T14:20:33;19.98;;;4.10;;
50531;SDS011;36483;37.396;-122.212;2023-01-10T14:23:07;21.50;;;5.43;;
50531;SDS011;36483;37.396;-122.212;2023-01-10T14:25:51;25.23;;;5.07;;
50531;SDS011;36483;37.396;-122.212;2023-01-10T14:28:39;25.08;;;4.45;;
50531;SDS011;36483;37.396;-122.212;2023-01-10T14:31:08;22.50;;;3.88;;
50531;SDS011;36483;37.396;-122.212;2023-01-10T14:33:42;22.08;;;5.03;;
50531;SDS011;36483;37.396;-122.212;2023-01-10T14:38:56;18.30;;;4.00;;
50531;SDS011;36483;37.396;-122.212;2023-01-10T14:41:28;28.48;;;5.32;;
50531;SDS011;36483;37.396;-122.212;2023-01-10T14:44:09;19.92;;;4.88;;
50531;SDS011;36483;37.396;-122.212;2023-01-10T14:46:42;23.05;;;4.35;;
50531;SDS011;36483;37.396;-122.212;2023-01-10T14:49:26;23.55;;;4.53;;
50531;SDS011;36483;37.396;-122.212;2023-01-10T14:54:44;21.88;;;3.97;;
50531;SDS011;36483;37.396;-122.212;2023-01-10T14:57:18;21.65;;;4.45;;
50531;SDS011;36483;37.396;-122.212;2023-01-10T14:59:46;28.77;;;5.13;;
50531;SDS011;36483;37.396;-122.212;2023-01-10T15:04:53;17.02;;;3.90;;
50531;SDS011;36483;37.396;-122.212;2023-01-10T15:07:20;10.93;;;2.55;;
50531;SDS011;36483;37.396;-122.212;2023-01-10T15:09:48;9.90;;;2.60;;
50531;SDS011;36483;37.396;-122.212;2023-01-10T15:12:17;9.82;;;2.38;;
50531;SDS011;36483;37.396;-122.212;2023-01-10T15:14:44;12.10;;;2.58;;
50531;SDS011;36483;37.396;-122.212;2023-01-10T15:17:12;9.70;;;2.80;;
50531;SDS011;36483;37.396;-122.212;2023-01-10T15:19:41;13.88;;;3.25;;
50531;SDS011;36483;37.396;-122.212;2023-01-10T15:22:15;11.35;;;2.15;;
50531;SDS011;36483;37.396;-122.212;2023-01-10T15:24:56;8.82;;;2.38;;
50531;SDS011;36483;37.396;-122.212;2023-01-10T15:27:23;11.85;;;2.85;;
50531;SDS011;36483;37.396;-122.212;2023-01-10T15:29:50;16.23;;;2.95;;
50531;SDS011;36483;37.396;-122.212;2023-01-10T15:32:27;16.88;;;2.85;;
50531;SDS011;36483;37.396;-122.212;2023-01-10T15:35:01;10.95;;;2.40;;
50531;SDS011;36483;37.396;-122.212;2023-01-10T15:37:28;12.93;;;2.95;;
50531;SDS011;36483;37.396;-122.212;2023-01-10T15:40:03;17.08;;;3.35;;
50531;SDS011;36483;37.396;-122.212;2023-01-10T15:42:30;19.80;;;3.80;;
50531;SDS011;36483;37.396;-122.212;2023-01-10T15:44:56;23.17;;;3.67;;
50531;SDS011;36483;37.396;-122.212;2023-01-10T15:47:33;29.13;;;4.13;;
50531;SDS011;36483;37.396;-122.212;2023-01-10T15:50:17;29.08;;;5.25;;
50531;SDS011;36483;37.396;-122.212;2023-01-10T15:52:51;19.58;;;4.00;;
50531;SDS011;36483;37.396;-122.212;2023-01-10T15:55:35;27.05;;;5.20;;
50531;SDS011;36483;37.396;-122.212;2023-01-10T15:58:13;32.28;;;5.15;;
50531;SDS011;36483;37.396;-122.212;2023-01-10T16:00:48;20.63;;;5.13;;
50531;SDS011;36483;37.396;-122.212;2023-01-10T16:05:59;25.17;;;4.93;;
50531;SDS011;36483;37.396;-122.212;2023-01-10T16:08:32;20.20;;;4.88;;
50531;SDS011;36483;37.396;-122.212;2023-01-10T16:11:00;22.23;;;3.67;;
50531;SDS011;36483;37.396;-122.212;2023-01-10T16:13:29;12.43;;;2.78;;
50531;SDS011;36483;37.396;-122.212;2023-01-10T16:15:57;17.23;;;2.75;;
50531;SDS011;36483;37.396;-122.212;2023-01-10T16:18:25;11.27;;;2.28;;
50531;SDS011;36483;37.396;-122.212;2023-01-10T16:20:53;9.57;;;2.10;;
50531;SDS011;36483;37.396;-122.212;2023-01-10T16:23:22;8.50;;;1.77;;
50531;SDS011;36483;37.396;-122.212;2023-01-10T16:26:01;11.63;;;2.17;;
50531;SDS011;36483;37.396;-122.212;2023-01-10T16:28:29;8.98;;;1.58;;
50531;SDS011;36483;37.396;-122.212;2023-01-10T16:31:00;11.18;;;2.20;;
50531;SDS011;36483;37.396;-122.212;2023-01-10T16:33:27;8.25;;;1.77;;
50531;SDS011;36483;37.396;-122.212;2023-01-10T16:35:54;7.38;;;2.15;;
50531;SDS011;36483;37.396;-122.212;2023-01-10T16:38:22;15.10;;;2.00;;
50531;SDS011;36483;37.396;-122.212;2023-01-10T16:40:53;8.27;;;2.13;;
50531;SDS011;36483;37.396;-122.212;2023-01-10T16:43:24;6.07;;;1.52;;
50531;SDS011;36483;37.396;-122.212;2023-01-10T16:45:54;6.93;;;1.77;;
50531;SDS011;36483;37.396;-122.212;2023-01-10T16:48:24;8.05;;;1.88;;
50531;SDS011;36483;37.396;-122.212;2023-01-10T16:50:52;5.55;;;1.67;;
50531;SDS011;36483;37.396;-122.212;2023-01-10T16:53:18;7.88;;;1.40;;
50531;SDS011;36483;37.396;-122.212;2023-01-10T16:58:18;6.72;;;1.83;;
50531;SDS011;36483;37.396;-122.212;2023-01-10T17:00:46;5.30;;;1.13;;
50531;SDS011;36483;37.396;-122.212;2023-01-10T17:03:17;6.82;;;1.25;;
50531;SDS011;36483;37.396;-122.212;2023-01-10T17:05:46;7.88;;;1.42;;
50531;SDS011;36483;37.396;-122.212;2023-01-10T17:08:22;9.15;;;1.35;;
50531;SDS011;36483;37.396;-122.212;2023-01-10T17:10:49;7.38;;;1.70;;
50531;SDS011;36483;37.396;-122.212;2023-01-10T17:13:25;7.45;;;1.60;;
50531;SDS011;36483;37.396;-122.212;2023-01-10T17:15:52;11.07;;;1.60;;
50531;SDS011;36483;37.396;-122.212;2023-01-10T17:18:18;7.03;;;1.40;;
50531;SDS011;36483;37.396;-122.212;2023-01-10T17:20:44;8.52;;;1.40;;
50531;SDS011;36483;37.396;-122.212;2023-01-10T17:23:11;7.25;;;1.40;;
50531;SDS011;36483;37.396;-122.212;2023-01-10T17:25:40;6.32;;;1.42;;
50531;SDS011;36483;37.396;-122.212;2023-01-10T17:28:08;8.40;;;1.35;;
50531;SDS011;36483;37.396;-122.212;2023-01-10T17:30:37;7.10;;;1.45;;
50531;SDS011;36483;37.396;-122.212;2023-01-10T17:33:04;12.68;;;2.03;;
50531;SDS011;36483;37.396;-122.212;2023-01-10T17:35:41;7.88;;;1.45;;
50531;SDS011;36483;37.396;-122.212;2023-01-10T17:38:09;6.93;;;1.50;;
50531;SDS011;36483;37.396;-122.212;2023-01-10T17:40:39;9.68;;;1.70;;
50531;SDS011;36483;37.396;-122.212;2023-01-10T17:43:06;11.00;;;1.85;;
50531;SDS011;36483;37.396;-122.212;2023-01-10T17:45:33;8.55;;;2.08;;
50531;SDS011;36483;37.396;-122.212;2023-01-10T17:47:59;7.70;;;1.80;;
50531;SDS011;36483;37.396;-122.212;2023-01-10T17:50:25;4.95;;;0.90;;
50531;SDS011;36483;37.396;-122.212;2023-01-10T17:52:51;2.00;;;0.85;;
50531;SDS011;36483;37.396;-122.212;2023-01-10T17:55:17;5.78;;;1.00;;
50531;SDS011;36483;37.396;-122.212;2023-01-10T17:57:43;4.28;;;1.05;;
50531;SDS011;36483;37.396;-122.212;2023-01-10T18:00:10;4.07;;;1.00;;
50531;SDS011;36483;37.396;-122.212;2023-01-10T18:02:36;2.53;;;0.80;;
50531;SDS011;36483;37.396;-122.212;2023-01-10T18:05:02;2.50;;;0.80;;
50531;SDS011;36483;37.396;-122.212;2023-01-10T18:07:29;3.53;;;1.05;;
50531;SDS011;36483;37.396;-122.212;2023-01-10T18:09:55;5.55;;;1.05;;
50531;SDS011;36483;37.396;-122.212;2023-01-10T18:12:22;2.42;;;0.80;;
50531;SDS011;36483;37.396;-122.212;2023-01-10T18:14:49;5.38;;;0.85;;
50531;SDS011;36483;37.396;-122.212;2023-01-10T18:17:15;2.35;;;0.88;;
50531;SDS011;36483;37.396;-122.212;2023-01-10T18:20:04;3.67;;;1.08;;
50531;SDS011;36483;37.396;-122.212;2023-01-10T18:22:31;2.10;;;0.80;;
50531;SDS011;36483;37.396;-122.212;2023-01-10T18:25:15;3.55;;;0.90;;
50531;SDS011;36483;37.396;-122.212;2023-01-10T18:27:42;4.57;;;1.27;;
50531;SDS011;36483;37.396;-122.212;2023-01-10T18:30:14;6.25;;;1.02;;
50531;SDS011;36483;37.396;-122.212;2023-01-10T18:32:43;5.55;;;1.20;;
50531;SDS011;36483;37.396;-122.212;2023-01-10T18:35:09;4.85;;;0.90;;
50531;SDS011;36483;37.396;-122.212;2023-01-10T18:37:35;7.10;;;1.13;;
50531;SDS011;36483;37.396;-122.212;2023-01-10T18:40:01;6.78;;;1.63;;
50531;SDS011;36483;37.396;-122.212;2023-01-10T18:42:28;6.00;;;0.98;;
50531;SDS011;36483;37.396;-122.212;2023-01-10T18:44:54;6.03;;;0.93;;
50531;SDS011;36483;37.396;-122.212;2023-01-10T18:47:21;4.97;;;1.02;;
50531;SDS011;36483;37.396;-122.212;2023-01-10T18:49:47;6.32;;;1.85;;